Latest Coastal Weather Observations for Nullarbor

IDS60701

Issued at 10:51 pm CST Sunday 16 June 2024 (issued every 10 minutes, with the page automatically refreshed every 10 minutes)

About coastal observations | Map of coastal stations | Coastal observations for SA | Marine services | Other Formats
Station Details ID: 018106 Name: NULLARBOR Lat: -31.45 Lon: 130.90 Height: 64.0 m
Data from the previous 72 hours. | See also: Recent months at Nullarbor
Date/Time
CST
Wind Sea
Height
m
Swell Vis
km
Cloud Weather Temp
°C
Press
MSL
hPa
Rain since
9am
mm
Dir  Spd
kts
Gust
kts
Height
m
Period
s
Dir
16/10:30pm E 6 7 - - - - 10 - - 14.1 1020.8 0.0
16/10:00pm ENE 8 9 - - - - 10 Partly cloudy - 14.9 1020.7 0.0
16/09:30pm ENE 8 10 - - - - 10 Partly cloudy - 16.2 1021.0 0.0
16/09:00pm NE 7 9 - - - - 10 Cloudy - 16.1 1021.1 0.0
16/08:30pm NE 7 8 - - - - 10 Partly cloudy - 15.8 1021.1 0.0
16/08:00pm NE 6 8 - - - - 10 Cloudy - 15.8 1021.1 0.0
16/07:30pm NE 7 8 - - - - 10 Cloudy - 16.4 1021.0 0.0
16/07:00pm ENE 7 8 - - - - 10 Cloudy - 16.9 1020.9 0.0
16/06:30pm NE 7 8 - - - - 10 Cloudy - 17.5 1020.7 0.0
16/06:00pm NE 7 9 - - - - 10 Cloudy - 18.4 1020.6 0.0
16/05:30pm NE 9 11 - - - - 10 Cloudy - 19.2 1020.7 0.0
16/05:00pm NE 10 13 - - - - 10 Cloudy - 19.8 1020.6 0.0
16/04:30pm NE 9 12 - - - - 10 Partly cloudy - 19.9 1020.7 0.0
16/04:00pm NE 11 14 - - - - 10 Cloudy - 20.3 1020.2 0.0
16/03:30pm NE 10 15 - - - - 10 - - 20.8 1020.3 0.0
16/03:00pm NNE 10 13 - - - - 10 Partly cloudy - 21.2 1020.5 0.0
16/02:30pm NNE 9 13 - - - - 10 Cloudy - 20.3 1020.7 0.0
16/02:00pm NE 9 13 - - - - 10 Cloudy - 20.1 1021.0 0.0
16/01:30pm NNE 9 12 - - - - 10 Partly cloudy - 19.2 1021.5 0.0
16/01:00pm NNE 11 14 - - - - 10 Partly cloudy - 18.7 1021.9 0.0
16/12:30pm NNE 11 13 - - - - 10 Cloudy - 18.7 1022.4 0.0
16/12:00pm NNE 11 14 - - - - 10 Mostly clear - 18.2 1023.0 0.0
16/11:30am NNE 12 16 - - - - 10 Partly cloudy - 17.9 1023.4 0.0
16/11:00am NNE 11 15 - - - - 10 Cloudy - 16.9 1023.9 0.0
16/10:30am NE 11 13 - - - - 10 Cloudy - 15.2 1024.1 0.0
16/10:00am NE 10 13 - - - - 10 Cloudy - 13.4 1023.8 0.0
16/09:30am NNE 10 14 - - - - 10 Cloudy - 12.8 1023.3 0.0
16/09:00am NE 11 16 - - - - 10 Mostly cloudy - 12.5 1022.8 0.0
16/08:30am NE 9 10 - - - - 10 Partly cloudy - 9.9 1022.3 0.0
16/08:00am NE 7 9 - - - - 10 Partly cloudy - 8.8 1022.0 0.0
16/07:30am ENE 7 9 - - - - 10 Cloudy - 9.6 1021.8 0.0
16/07:00am ENE 8 10 - - - - 10 Cloudy - 9.8 1021.6 0.0
16/06:30am E 6 8 - - - - 10 Partly cloudy - 9.3 1022.3 0.0
16/06:00am E 6 6 - - - - 10 Cloudy - 9.3 1022.3 0.0
16/05:30am ENE 7 8 - - - - 10 - - 9.4 1022.0 0.0
16/05:00am E 5 5 - - - - 10 - - 9.1 1022.1 0.0
16/04:30am E 5 6 - - - - 10 Partly cloudy - 9.2 1022.0 0.0
16/04:00am ENE 8 9 - - - - 10 - - 9.3 1021.8 0.0
16/03:30am E 7 8 - - - - 10 Partly cloudy - 9.5 1022.0 0.0
16/03:00am E 6 7 - - - - 10 Cloudy - 10.1 1022.1 0.0
16/02:30am NE 7 7 - - - - 10 Partly cloudy - 9.8 1022.4 0.0
16/02:00am ENE 6 7 - - - - 10 Partly cloudy - 10.0 1022.3 0.0
16/01:30am ENE 7 8 - - - - 10 Partly cloudy - 10.6 1022.3 0.0
16/01:00am ENE 6 7 - - - - 10 - - 10.7 1022.5 0.0
16/12:30am E 5 6 - - - - 10 - - 11.2 1022.9 0.0
16/12:00am E 8 9 - - - - 10 Cloudy - 11.4 1022.3 0.0
 
Date/Time
CST
Wind Sea
Height
m
Swell Vis
km
Cloud Weather Temp
°C
Press
MSL
hPa
Rain since
9am
mm
Dir  Spd
kts
Gust
kts
Height
m
Period
s
Dir
15/11:30pm E 6 8 - - - - 10 Partly cloudy - 12.1 1022.8 0.0
15/11:00pm ESE 8 10 - - - - 10 - - 12.3 1022.6 0.0
15/10:57pm ESE 8 10 - - - - 10 - - 12.4 1022.6 0.0
15/10:30pm E 6 7 - - - - 6 - - 12.2 1022.9 0.0
15/10:04pm E 6 8 - - - - 7 - - 12.3 1022.7 0.0
15/10:00pm E 7 8 - - - - 9 - - 12.2 1022.6 0.0
15/09:30pm ESE 5 6 - - - - 10 - - 11.7 1022.6 0.0
15/09:00pm ESE 5 6 - - - - 10 Cloudy - 11.5 1022.7 0.0
15/08:30pm ESE 6 8 - - - - 10 - - 11.7 1022.9 0.0
15/08:00pm E 6 7 - - - - 10 - - 11.4 1022.8 0.0
15/07:30pm ESE 7 7 - - - - 10 - - 11.8 1022.7 0.0
15/07:00pm ESE 5 6 - - - - 10 - - 12.7 1022.8 0.0
15/06:30pm ESE 6 7 - - - - 10 - - 13.1 1022.5 0.0
15/06:00pm ESE 5 7 - - - - 10 Cloudy - 14.2 1022.3 0.0
15/05:30pm ESE 7 9 - - - - 10 - - 15.1 1022.2 0.0
15/05:00pm ESE 9 11 - - - - 10 - - 15.7 1021.8 0.0
15/04:30pm ESE 8 10 - - - - 10 - - 16.0 1022.0 0.0
15/04:00pm ESE 7 11 - - - - 10 - - 16.6 1021.8 0.0
15/03:30pm ESE 7 10 - - - - 10 - - 16.7 1021.6 0.0
15/03:00pm ESE 9 12 - - - - 10 Cloudy - 16.8 1021.8 0.0
15/02:30pm E 9 12 - - - - 10 Partly cloudy - 17.0 1021.9 0.0
15/02:00pm E 9 12 - - - - 10 Partly cloudy - 16.8 1022.0 0.0
15/01:30pm E 8 10 - - - - 10 Partly cloudy - 16.4 1022.7 0.0
15/01:00pm ENE 7 9 - - - - 10 Partly cloudy - 16.2 1023.4 0.0
15/12:30pm E 8 10 - - - - 10 Partly cloudy - 15.8 1023.9 0.0
15/12:00pm E 8 10 - - - - 10 Cloudy - 15.9 1024.5 0.0
15/11:30am ENE 7 10 - - - - 10 Partly cloudy - 15.3 1024.8 0.0
15/11:00am ENE 7 9 - - - - 10 Partly cloudy - 15.3 1025.1 0.0
15/10:30am ENE 9 11 - - - - 10 Cloudy - 14.7 1024.7 0.0
15/10:00am ENE 5 7 - - - - 10 Cloudy - 14.1 1025.0 0.0
15/09:32am NE 6 8 - - - - 10 Partly cloudy - 13.6 1024.6 0.0
15/09:30am NE 6 8 - - - - 10 Partly cloudy - 13.5 1024.5 0.0
15/09:24am NNE 5 7 - - - - 10 Partly cloudy - 13.3 1024.5 0.0
15/09:00am NNE 4 5 - - - - 0.2 Cloudy - 11.9 1024.3 0.0
15/08:48am NNE 6 6 - - - - 1 Partly cloudy - 11.2 1024.1 0.0
15/08:30am NW 4 5 - - - - 1 Partly cloudy - 10.0 1024.0 0.0
15/08:00am W 3 4 - - - - 0.6 Cloudy - 9.6 1023.9 0.0
15/07:30am SSE 5 6 - - - - 0.5 Partly cloudy - 10.6 1023.2 0.0
15/07:14am SSW 5 5 - - - - 1 Partly cloudy - 11.2 1022.9 0.0
15/07:11am SSW 5 5 - - - - 1 Partly cloudy - 11.2 1023.0 0.0
15/07:00am S 5 5 - - - - 0.9 Partly cloudy - 11.5 1023.0 0.0
15/06:30am WSW 4 5 - - - - 4 Partly cloudy - 10.7 1023.0 0.0
15/06:26am WSW 4 4 - - - - 7 Partly cloudy - 10.7 1023.1 0.0
15/06:24am WSW 4 4 - - - - 9 Partly cloudy - 10.7 1023.0 0.0
15/06:00am WSW 4 4 - - - - 10 Partly cloudy - 10.8 1022.6 0.0
15/05:30am W 5 6 - - - - 10 Partly cloudy - 11.0 1022.5 0.0
15/05:00am W 4 5 - - - - 10 Cloudy - 10.9 1022.0 0.0
15/04:30am WSW 2 4 - - - - 10 Cloudy - 10.8 1021.8 0.0
15/04:11am WSW 4 5 - - - - 10 Partly cloudy - 11.0 1022.2 0.0
15/04:00am W 5 6 - - - - 7 Partly cloudy - 10.9 1022.3 0.0
15/03:30am W 5 6 - - - - 7 Partly cloudy - 10.6 1022.3 0.0
15/03:28am W 5 6 - - - - 7 Partly cloudy - 10.5 1022.2 0.0
15/03:00am W 6 7 - - - - 10 Cloudy - 10.6 1022.1 0.0
15/02:30am WNW 6 6 - - - - 10 Cloudy - 9.9 1022.0 0.0
15/02:27am WNW 6 6 - - - - 10 Cloudy - 9.9 1022.1 0.0
15/02:13am WNW 6 7 - - - - 3 Partly cloudy - 9.6 1022.1 0.0
15/02:00am W 4 5 - - - - 2 Partly cloudy - 9.5 1021.9 0.0
15/01:56am W 4 5 - - - - 2 Partly cloudy - 9.4 1021.8 0.0
15/01:30am W 4 5 - - - - 1 Partly cloudy - 9.8 1021.7 0.0
15/01:11am WSW 4 5 - - - - 1 Partly cloudy - 10.2 1021.9 0.0
15/01:00am WSW 4 5 - - - - 1 Partly cloudy - 10.6 1021.8 0.0
15/12:56am WSW 4 5 - - - - 0.9 Partly cloudy - 10.4 1021.9 0.0
15/12:38am WSW 4 5 - - - - 10 Partly cloudy - 10.4 1022.0 0.0
15/12:30am WSW 5 5 - - - - 7 Partly cloudy - 10.5 1022.0 0.0
15/12:00am W 6 7 - - - - 0.5 Cloudy - 9.7 1022.6 0.0
 
Date/Time
CST
Wind Sea
Height
m
Swell Vis
km
Cloud Weather Temp
°C
Press
MSL
hPa
Rain since
9am
mm
Dir  Spd
kts
Gust
kts
Height
m
Period
s
Dir
14/11:40pm W 5 6 - - - - 0.5 Partly cloudy - 10.7 1022.4 0.0
14/11:34pm W 5 6 - - - - 7 Partly cloudy - 10.9 1022.6 0.0
14/11:30pm W 5 6 - - - - 10 Partly cloudy - 11.0 1022.6 0.0
14/11:00pm WSW 4 5 - - - - 10 - - 11.7 1022.9 0.0
14/10:30pm W 6 7 - - - - 10 Partly cloudy - 12.5 1023.0 0.0
14/10:00pm W 5 6 - - - - 10 Partly cloudy - 12.9 1022.9 0.0
14/09:30pm W 5 6 - - - - 10 Partly cloudy - 13.2 1023.0 0.0
14/09:00pm SW 4 5 - - - - 10 Cloudy - 13.4 1022.9 0.0
14/08:30pm WSW 5 6 - - - - 10 Partly cloudy - 12.9 1022.7 0.0
14/08:00pm SW 4 5 - - - - 10 Partly cloudy - 13.5 1022.4 0.0
14/07:30pm SSW 6 7 - - - - 10 Cloudy - 14.0 1022.3 0.0
14/07:00pm SSW 7 8 - - - - 10 Cloudy - 14.1 1022.0 0.0
14/06:30pm SW 6 8 - - - - 10 Partly cloudy - 14.0 1021.7 0.0
14/06:00pm SW 9 11 - - - - 10 - - 14.8 1021.3 0.0
14/05:30pm SW 10 12 - - - - 10 Partly cloudy - 15.1 1020.8 0.0
14/05:23pm SW 10 14 - - - - 10 Partly cloudy - 15.3 1020.6 0.0
14/05:04pm SW 14 19 - - - - 7 Partly cloudy - 15.3 1020.4 0.0
14/05:00pm SW 14 18 - - - - 10 Partly cloudy - 16.2 1020.4 0.0
14/04:30pm SW 15 23 - - - - 10 Partly cloudy - 15.9 1020.1 0.0
14/04:00pm WSW 15 21 - - - - 10 Partly cloudy - 17.2 1020.1 0.0
14/03:30pm SW 17 23 - - - - 10 Partly cloudy - 17.3 1020.1 0.0
14/03:00pm WSW 17 25 - - - - 10 Partly cloudy - 17.5 1019.8 0.0
14/02:30pm WSW 18 23 - - - - 10 Partly cloudy - 18.2 1019.9 0.0
14/02:00pm WSW 18 23 - - - - 10 Partly cloudy - 18.0 1020.0 0.0
14/01:30pm WSW 18 24 - - - - 10 Partly cloudy - 18.3 1020.1 0.0
14/01:00pm WSW 17 21 - - - - 10 Partly cloudy - 18.2 1020.3 0.0
14/12:30pm WSW 15 20 - - - - 10 Partly cloudy - 18.5 1020.4 0.0
14/12:00pm WSW 15 21 - - - - 10 Partly cloudy - 17.6 1020.9 0.0
14/11:30am W 14 19 - - - - 10 Partly cloudy - 17.5 1021.1 0.0
14/11:00am W 12 19 - - - - 10 - - 16.6 1021.2 0.0
14/10:30am WNW 11 15 - - - - 10 - - 15.4 1021.7 0.0
14/10:00am W 11 13 - - - - 10 - - 14.0 1021.5 0.0
14/09:30am W 10 13 - - - - 10 - - 12.2 1021.2 0.0
14/09:00am WNW 11 14 - - - - 10 - - 10.6 1020.8 1.2
14/08:30am WNW 8 10 - - - - 10 - - 9.3 1020.3 1.2
14/08:00am NW 8 10 - - - - 10 - - 8.3 1020.3 1.2
14/07:30am WNW 9 10 - - - - 10 - - 8.1 1020.4 1.2
14/07:00am WNW 8 10 - - - - 10 - - 7.8 1020.0 1.2
14/06:30am WNW 7 8 - - - - 10 - - 7.5 1019.5 1.2
14/06:00am W 6 8 - - - - 10 - - 8.1 1019.3 1.2
14/05:30am W 8 10 - - - - 10 - - 8.9 1019.0 1.2
14/05:00am W 7 9 - - - - 10 - - 9.1 1018.9 1.2
14/04:30am W 8 10 - - - - 10 - - 9.2 1018.8 1.2
14/04:00am W 9 11 - - - - 10 - - 9.2 1018.6 1.0
14/03:30am W 9 11 - - - - 10 - - 9.2 1018.8 1.0
14/03:00am W 9 11 - - - - 10 - - 9.0 1019.1 1.0
14/02:30am WNW 10 11 - - - - 10 - - 9.1 1019.3 1.0
14/02:00am WNW 9 11 - - - - 10 - - 9.3 1019.6 1.0
14/01:30am NW 9 13 - - - - 10 - - 9.8 1019.5 1.0
14/01:00am NW 7 8 - - - - 8 - - 10.0 1019.0 1.0
14/12:30am WNW 7 9 - - - - 10 Partly cloudy - 10.8 1019.0 1.0
14/12:27am WNW 8 9 - - - - 10 Partly cloudy - 10.9 1019.0 1.0
14/12:06am WNW 7 8 - - - - 9 Partly cloudy - 11.0 1019.4 1.0
14/12:00am WNW 7 8 - - - - 9 Mostly clear - 10.9 1019.5 1.0
 
Date/Time
CST
Wind Sea
Height
m
Swell Vis
km
Cloud Weather Temp
°C
Press
MSL
hPa
Rain since
9am
mm
Dir  Spd
kts
Gust
kts
Height
m
Period
s
Dir
13/11:47pm W 7 9 - - - - 9 Partly cloudy - 10.9 1019.4 1.0
13/11:35pm WNW 8 10 - - - - 10 Partly cloudy - 11.1 1019.5 1.0
13/11:31pm WNW 8 10 - - - - 10 Partly cloudy - 10.9 1019.5 1.0
13/11:30pm WNW 8 10 - - - - 10 Partly cloudy - 10.9 1019.5 1.0
13/11:00pm WNW 7 9 - - - - 10 Partly cloudy - 11.5 1019.5 1.0
13/10:55pm W 7 9 - - - - 10 Partly cloudy - 11.3 1019.5 1.0

Other formats

Comma delimited format used in spreadsheet applications
http://www.bom.gov.au/fwo/IDS60701/IDS60701.94651.axf

JavaScript Object Notation format (JSON) in row-major order
http://www.bom.gov.au/fwo/IDS60701/IDS60701.94651.json

Data quality

Most of these data are generated automatically and are frequently updated. Quality checks on data are not normally performed. It is possible for incorrect values to appear. Refer to information at About Latest Weather Observations and please check the disclaimer before using these data.